createdAt,value
2018-06-05T00:01:04.532Z,18.50
2018-06-05T00:03:38.751Z,18.40
2018-06-05T00:08:47.255Z,18.50
2018-06-05T00:11:21.458Z,18.50
2018-06-05T00:13:55.706Z,18.50
2018-06-05T00:16:30.070Z,18.40
2018-06-05T00:19:04.399Z,18.50
2018-06-05T00:21:38.818Z,18.50
2018-06-05T00:26:47.295Z,18.20
2018-06-05T00:29:21.519Z,18.10
2018-06-05T00:31:55.818Z,18.20
2018-06-05T00:34:30.168Z,18.20
2018-06-05T00:37:04.599Z,18.30
2018-06-05T00:39:38.875Z,18.10
2018-06-05T00:42:13.227Z,18.10
2018-06-05T00:44:47.487Z,18.10
2018-06-05T00:47:21.646Z,17.90
2018-06-05T00:49:55.847Z,18.10
2018-06-05T00:52:30.203Z,18.10
2018-06-05T00:55:04.646Z,18.00
2018-06-05T00:57:38.900Z,18.10
2018-06-05T01:00:13.117Z,18.10
2018-06-05T01:02:47.464Z,18.10
2018-06-05T01:05:21.810Z,18.20
2018-06-05T01:07:56.151Z,17.70
2018-06-05T01:10:30.415Z,17.70
2018-06-05T01:13:04.816Z,17.60
2018-06-05T01:15:39.152Z,17.60
2018-06-05T01:18:13.462Z,17.70
2018-06-05T01:20:47.769Z,17.50
2018-06-05T01:23:22.142Z,17.80
2018-06-05T01:25:56.371Z,17.80
2018-06-05T01:28:30.695Z,17.80
2018-06-05T01:31:05.020Z,17.80
2018-06-05T01:33:39.426Z,17.50
2018-06-05T01:36:13.765Z,17.70
2018-06-05T01:38:48.121Z,17.80
2018-06-05T01:41:22.382Z,17.40
2018-06-05T01:43:56.612Z,17.40
2018-06-05T01:46:30.826Z,17.60
2018-06-05T01:49:05.104Z,17.60
2018-06-05T01:51:39.438Z,17.50
2018-06-05T01:54:13.799Z,17.60
2018-06-05T01:56:47.971Z,17.60
2018-06-05T01:59:22.275Z,17.70
2018-06-05T02:01:56.586Z,17.60
2018-06-05T02:04:30.938Z,17.40
2018-06-05T02:07:05.144Z,17.30
2018-06-05T02:09:39.351Z,17.40
2018-06-05T02:12:13.583Z,17.40
2018-06-05T02:14:48.028Z,17.50
2018-06-05T02:17:22.234Z,17.40
2018-06-05T02:19:56.444Z,17.40
2018-06-05T02:22:30.623Z,17.40
2018-06-05T02:25:05.114Z,17.30
2018-06-05T02:27:39.542Z,17.40
2018-06-05T02:30:13.921Z,17.40
2018-06-05T02:32:48.082Z,17.40
2018-06-05T02:35:22.410Z,17.50
2018-06-05T02:37:56.715Z,16.90
2018-06-05T02:40:31.104Z,17.20
2018-06-05T02:43:05.410Z,17.30
2018-06-05T02:45:39.701Z,17.40
2018-06-05T02:48:14.030Z,17.40
2018-06-05T02:50:48.242Z,17.40
2018-06-05T02:53:22.385Z,17.40
2018-06-05T02:55:56.675Z,17.50
2018-06-05T02:58:30.870Z,17.50
2018-06-05T03:01:05.077Z,17.60
2018-06-05T03:03:39.378Z,17.40
2018-06-05T03:06:13.594Z,17.40
2018-06-05T03:08:47.787Z,17.40
2018-06-05T03:11:22.021Z,17.50
2018-06-05T03:13:56.383Z,17.40
2018-06-05T03:16:30.774Z,17.50
2018-06-05T03:19:04.922Z,17.40
2018-06-05T03:21:39.262Z,17.50
2018-06-05T03:24:13.416Z,17.50
2018-06-05T03:26:47.832Z,17.50
2018-06-05T03:29:22.061Z,17.50
2018-06-05T03:31:56.478Z,17.50
2018-06-05T03:34:30.800Z,17.60
2018-06-05T03:37:05.095Z,17.50
2018-06-05T03:39:39.417Z,17.50
2018-06-05T03:42:13.722Z,17.50
2018-06-05T03:44:48.124Z,17.30
2018-06-05T03:47:22.385Z,17.30
2018-06-05T03:49:56.693Z,17.30
2018-06-05T03:52:31.126Z,17.30
2018-06-05T03:55:05.450Z,17.20
2018-06-05T03:57:39.625Z,17.40
2018-06-05T04:00:14.011Z,17.50
2018-06-05T04:02:48.318Z,17.60
2018-06-05T04:05:22.699Z,17.50
2018-06-05T04:07:56.895Z,17.50
2018-06-05T04:10:31.264Z,17.50
2018-06-05T04:13:05.684Z,17.50
2018-06-05T04:15:39.964Z,17.40
2018-06-05T04:18:14.181Z,17.30
2018-06-05T04:20:48.466Z,17.40
2018-06-05T04:23:22.639Z,17.50
2018-06-05T04:25:56.942Z,17.50
2018-06-05T04:28:31.213Z,17.40
2018-06-05T04:31:05.452Z,17.30
2018-06-05T04:33:39.945Z,17.30
2018-06-05T04:36:14.233Z,17.20
2018-06-05T04:38:48.618Z,17.20
2018-06-05T04:41:22.802Z,17.30
2018-06-05T04:43:57.187Z,17.50
2018-06-05T04:46:31.478Z,17.20
2018-06-05T04:49:05.789Z,17.00
2018-06-05T04:51:40.056Z,17.30
2018-06-05T04:54:14.227Z,17.20
2018-06-05T04:56:48.450Z,17.40
2018-06-05T04:59:22.710Z,17.30
2018-06-05T05:01:57.007Z,17.40
2018-06-05T05:04:31.460Z,17.50
2018-06-05T05:07:05.810Z,17.20
2018-06-05T05:09:40.164Z,17.40
2018-06-05T05:12:14.432Z,17.30
2018-06-05T05:14:48.752Z,17.30
2018-06-05T05:17:22.974Z,17.40
2018-06-05T05:19:57.337Z,17.50
2018-06-05T05:22:31.631Z,17.60
2018-06-05T05:25:05.886Z,17.60
2018-06-05T05:27:40.092Z,17.60
2018-06-05T05:30:14.331Z,17.60
2018-06-05T05:32:48.719Z,17.60
2018-06-05T05:35:23.000Z,17.60
2018-06-05T05:37:57.258Z,17.40
2018-06-05T05:40:31.656Z,17.50
2018-06-05T05:45:40.006Z,17.50
2018-06-05T05:48:14.416Z,17.60
2018-06-05T05:53:22.878Z,17.60
2018-06-05T05:55:57.195Z,17.70
2018-06-05T05:58:31.550Z,17.70
2018-06-05T06:01:05.818Z,17.40
2018-06-05T06:03:40.310Z,17.50
2018-06-05T06:06:14.529Z,17.50
2018-06-05T06:08:48.817Z,17.50
2018-06-05T06:11:22.975Z,17.60
2018-06-05T06:13:57.397Z,17.70
2018-06-05T06:16:31.721Z,17.60
2018-06-05T06:19:06.141Z,17.70
2018-06-05T06:21:40.282Z,17.60
2018-06-05T06:24:14.486Z,17.60
2018-06-05T06:26:48.743Z,17.60
2018-06-05T06:29:23.007Z,17.50
2018-06-05T06:31:57.312Z,17.30
2018-06-05T06:34:31.573Z,17.40
2018-06-05T06:37:05.954Z,17.40
2018-06-05T06:42:14.275Z,17.50
2018-06-05T06:44:48.435Z,17.60
2018-06-05T06:47:22.626Z,17.40
2018-06-05T06:49:56.931Z,17.50
2018-06-05T06:52:31.096Z,17.50
2018-06-05T06:55:05.387Z,17.60
2018-06-05T06:57:39.592Z,17.60
2018-06-05T07:00:13.924Z,17.50
2018-06-05T07:02:48.205Z,17.60
2018-06-05T07:05:22.554Z,17.60
2018-06-05T07:07:56.797Z,17.60
2018-06-05T07:10:31.011Z,17.60
2018-06-05T07:18:13.529Z,17.60
2018-06-05T07:20:47.787Z,17.70
2018-06-05T07:23:22.011Z,17.60
2018-06-05T07:25:56.220Z,17.60
2018-06-05T07:28:30.508Z,17.70
2018-06-05T07:31:04.875Z,17.60
2018-06-05T07:33:39.138Z,17.60
2018-06-05T07:36:13.494Z,17.60
2018-06-05T07:38:47.683Z,17.60
2018-06-05T07:41:22.135Z,17.60
2018-06-05T07:43:56.432Z,17.60
2018-06-05T07:46:30.704Z,17.60
2018-06-05T07:49:05.003Z,17.60
2018-06-05T07:51:39.240Z,17.70
2018-06-05T07:54:13.536Z,17.60
2018-06-05T07:56:47.898Z,17.70
2018-06-05T07:59:22.130Z,17.70
2018-06-05T08:01:56.306Z,17.60
2018-06-05T08:07:04.695Z,17.70
2018-06-05T08:09:38.974Z,17.70
2018-06-05T08:12:13.374Z,17.80
2018-06-05T08:14:47.687Z,17.70
2018-06-05T08:17:22.119Z,17.80
2018-06-05T08:19:56.454Z,17.80
2018-06-05T08:22:40.963Z,17.80
2018-06-05T08:25:15.300Z,17.60
2018-06-05T08:27:49.472Z,17.70
2018-06-05T08:30:23.704Z,17.60
2018-06-05T08:32:57.990Z,17.70
2018-06-05T08:35:32.213Z,17.80
2018-06-05T08:38:06.535Z,17.80
2018-06-05T08:40:41.007Z,17.90
2018-06-05T08:43:15.299Z,18.00
2018-06-05T08:45:49.622Z,17.90
2018-06-05T08:48:23.942Z,17.90
2018-06-05T08:50:58.262Z,17.80
2018-06-05T08:53:32.498Z,18.00
2018-06-05T08:56:06.763Z,17.90
2018-06-05T08:58:41.027Z,17.80
2018-06-05T09:01:15.298Z,17.90
2018-06-05T09:03:49.629Z,17.60
2018-06-05T09:06:23.878Z,17.80
2018-06-05T09:08:58.084Z,17.80
2018-06-05T09:11:32.364Z,17.90
2018-06-05T09:14:06.550Z,17.90
2018-06-05T09:16:40.858Z,17.70
2018-06-05T09:19:15.282Z,17.70
2018-06-05T09:21:49.598Z,17.50
2018-06-05T09:24:23.897Z,17.70
2018-06-05T09:26:58.115Z,17.70
2018-06-05T09:32:06.446Z,17.80
2018-06-05T09:34:40.727Z,18.00
2018-06-05T09:37:15.074Z,18.00
2018-06-05T09:39:49.387Z,18.00
2018-06-05T09:42:23.698Z,18.20
2018-06-05T09:44:57.943Z,18.20
2018-06-05T09:47:32.139Z,18.10
2018-06-05T09:50:06.439Z,18.30
2018-06-05T09:52:40.849Z,18.40
2018-06-05T09:55:15.011Z,18.40
2018-06-05T09:57:49.334Z,18.50
2018-06-05T10:00:28.926Z,18.40
2018-06-05T10:03:03.087Z,18.30
2018-06-05T10:05:37.502Z,18.50
2018-06-05T10:08:11.866Z,18.30
2018-06-05T10:10:46.120Z,18.40
2018-06-05T10:13:20.403Z,18.30
2018-06-05T10:15:54.698Z,18.40
2018-06-05T10:18:29.066Z,18.40
2018-06-05T10:21:03.382Z,18.40
2018-06-05T10:23:37.543Z,18.40
2018-06-05T10:26:12.032Z,18.40
2018-06-05T10:28:46.437Z,18.60
2018-06-05T10:31:20.627Z,18.70
2018-06-05T10:33:54.831Z,18.80
2018-06-05T10:36:29.084Z,18.80
2018-06-05T10:39:03.450Z,18.80
2018-06-05T10:41:37.595Z,18.80
2018-06-05T10:44:11.951Z,18.80
2018-06-05T10:46:46.164Z,18.60
2018-06-05T10:49:20.450Z,18.50
2018-06-05T10:51:54.827Z,18.70
2018-06-05T10:54:29.171Z,19.00
2018-06-05T10:57:03.483Z,19.10
2018-06-05T10:59:37.613Z,19.10
2018-06-05T11:04:45.886Z,19.20
2018-06-05T11:07:20.277Z,19.20
2018-06-05T11:09:54.600Z,18.90
2018-06-05T11:12:28.875Z,19.00
2018-06-05T11:15:03.280Z,19.10
2018-06-05T11:17:37.525Z,19.30
2018-06-05T11:20:11.855Z,19.40
2018-06-05T11:22:46.130Z,19.30
2018-06-05T11:25:20.445Z,19.10
2018-06-05T11:27:54.654Z,19.30
2018-06-05T11:30:28.933Z,19.20
2018-06-05T11:33:03.391Z,19.30
2018-06-05T11:35:37.794Z,19.30
2018-06-05T11:38:12.107Z,19.50
2018-06-05T11:40:46.389Z,19.60
2018-06-05T11:43:20.731Z,19.70
2018-06-05T11:45:55.027Z,19.60
2018-06-05T11:48:29.395Z,19.70
2018-06-05T11:51:03.686Z,19.70
2018-06-05T11:53:38.043Z,19.50
2018-06-05T11:56:12.247Z,19.60
2018-06-05T11:58:46.573Z,19.50
2018-06-05T12:01:20.919Z,19.80
2018-06-05T12:03:55.137Z,19.90
2018-06-05T12:09:03.610Z,20.00
2018-06-05T12:11:37.739Z,20.00
2018-06-05T12:14:12.094Z,19.80
2018-06-05T12:16:46.243Z,20.20
2018-06-05T12:19:20.672Z,20.20
2018-06-05T12:21:54.927Z,20.40
2018-06-05T12:24:29.387Z,20.10
2018-06-05T12:27:03.713Z,20.30
2018-06-05T12:29:38.077Z,20.10
2018-06-05T12:32:12.434Z,20.40
2018-06-05T12:34:46.778Z,20.50
2018-06-05T12:37:21.076Z,21.10
2018-06-05T12:39:55.258Z,22.00
2018-06-05T12:42:29.503Z,22.40
2018-06-05T12:45:03.790Z,22.70
2018-06-05T12:47:38.170Z,22.40
2018-06-05T12:50:12.482Z,22.50
2018-06-05T12:52:46.827Z,22.70
2018-06-05T12:55:22.690Z,23.00
2018-06-05T12:57:57.070Z,23.20
2018-06-05T13:00:31.361Z,23.80
2018-06-05T13:03:05.696Z,24.10
2018-06-05T13:05:40.071Z,24.10
2018-06-05T13:08:14.323Z,24.40
2018-06-05T13:10:48.654Z,24.40
2018-06-05T13:13:22.823Z,24.20
2018-06-05T13:15:57.316Z,24.30
2018-06-05T13:18:31.702Z,24.60
2018-06-05T13:21:06.343Z,24.50
2018-06-05T13:23:40.880Z,24.50
2018-06-05T13:26:15.550Z,24.40
2018-06-05T13:28:49.850Z,23.70
2018-06-05T13:31:24.126Z,24.00
2018-06-05T13:33:58.333Z,24.30
2018-06-05T13:36:32.700Z,23.80
2018-06-05T13:39:08.418Z,24.50
2018-06-05T13:41:42.658Z,24.50
2018-06-05T13:44:16.831Z,24.60
2018-06-05T13:46:51.075Z,24.10
2018-06-05T13:49:25.313Z,24.80
2018-06-05T13:54:33.710Z,24.80
2018-06-05T13:57:08.014Z,24.90
2018-06-05T13:59:42.316Z,25.20
2018-06-05T14:02:16.618Z,24.80
2018-06-05T14:04:51.008Z,24.70
2018-06-05T14:07:25.363Z,25.00
2018-06-05T14:09:59.871Z,25.00
2018-06-05T14:12:34.203Z,25.40
2018-06-05T14:15:08.410Z,24.70
2018-06-05T14:17:42.723Z,25.30
2018-06-05T14:20:16.930Z,25.60
2018-06-05T14:22:51.238Z,25.80
2018-06-05T14:25:25.587Z,25.90
2018-06-05T14:27:59.918Z,26.20
2018-06-05T14:30:34.154Z,26.00
2018-06-05T14:33:08.499Z,26.20
2018-06-05T14:35:42.698Z,25.50
2018-06-05T14:38:16.925Z,25.80
2018-06-05T14:40:51.321Z,25.00
2018-06-05T14:43:25.762Z,25.40
2018-06-05T14:46:00.171Z,26.10
2018-06-05T14:48:34.581Z,26.20
2018-06-05T14:51:08.783Z,25.90
2018-06-05T14:53:43.045Z,26.00
2018-06-05T14:56:17.458Z,26.20
2018-06-05T14:58:51.795Z,25.80
2018-06-05T15:01:26.122Z,26.00
2018-06-05T15:04:00.362Z,26.00
2018-06-05T15:06:34.690Z,26.60
2018-06-05T15:09:09.149Z,26.40
2018-06-05T15:11:43.378Z,26.30
2018-06-05T15:14:17.661Z,25.90
2018-06-05T15:16:51.866Z,24.90
2018-06-05T15:19:26.138Z,25.40
2018-06-05T15:22:01.190Z,25.80
2018-06-05T15:24:35.701Z,26.20
2018-06-05T15:27:09.996Z,25.90
2018-06-05T15:29:44.319Z,25.90
2018-06-05T15:32:18.618Z,26.30
2018-06-05T15:34:53.006Z,26.70
2018-06-05T15:37:27.318Z,26.10
2018-06-05T15:40:01.646Z,26.70
2018-06-05T15:42:36.227Z,26.50
2018-06-05T15:45:10.693Z,26.90
2018-06-05T15:47:45.023Z,26.90
2018-06-05T15:50:19.226Z,27.10
2018-06-05T15:52:53.443Z,26.50
2018-06-05T15:55:27.794Z,26.30
2018-06-05T15:58:02.092Z,26.80
2018-06-05T16:00:36.397Z,27.10
2018-06-05T16:03:10.803Z,26.60
2018-06-05T16:05:45.128Z,26.70
2018-06-05T16:08:19.390Z,26.30
2018-06-05T16:10:53.704Z,26.90
2018-06-05T16:13:28.054Z,27.30
2018-06-05T16:16:02.274Z,27.30
2018-06-05T16:18:36.616Z,26.20
2018-06-05T16:21:10.927Z,26.80
2018-06-05T16:23:45.468Z,27.20
2018-06-05T16:26:19.907Z,27.10
2018-06-05T16:31:28.218Z,27.30
2018-06-05T16:34:02.466Z,27.30
2018-06-05T16:36:36.758Z,27.20
2018-06-05T16:39:11.129Z,27.60
2018-06-05T16:41:45.570Z,27.80
2018-06-05T16:44:19.902Z,27.70
2018-06-05T16:46:54.114Z,27.30
2018-06-05T16:49:28.342Z,27.50
2018-06-05T16:52:02.774Z,27.90
2018-06-05T16:54:37.371Z,27.70
2018-06-05T16:57:11.667Z,27.70
2018-06-05T16:59:45.824Z,27.70
2018-06-05T17:02:20.099Z,27.40
2018-06-05T17:04:54.409Z,27.70
2018-06-05T17:07:28.746Z,27.80
2018-06-05T17:10:03.072Z,27.50
2018-06-05T17:12:37.409Z,27.50
2018-06-05T17:15:11.592Z,27.60
2018-06-05T17:17:45.862Z,27.80
2018-06-05T17:20:20.112Z,27.80
2018-06-05T17:22:54.435Z,27.80
2018-06-05T17:25:28.704Z,27.50
2018-06-05T17:30:37.158Z,26.90
2018-06-05T17:33:11.641Z,27.20
2018-06-05T17:35:45.894Z,27.40
2018-06-05T17:38:20.186Z,27.20
2018-06-05T17:40:54.507Z,27.00
2018-06-05T17:43:28.835Z,27.30
2018-06-05T17:46:03.175Z,27.20
2018-06-05T17:48:37.454Z,27.20
2018-06-05T17:51:11.700Z,27.10
2018-06-05T17:53:46.059Z,26.80
2018-06-05T17:56:20.217Z,26.60
2018-06-05T17:58:54.542Z,26.70
2018-06-05T18:01:28.795Z,26.80
2018-06-05T18:06:37.162Z,26.70
2018-06-05T18:09:11.489Z,26.80
2018-06-05T18:11:45.809Z,26.80
2018-06-05T18:14:20.118Z,26.70
2018-06-05T18:16:54.403Z,26.50
2018-06-05T18:19:28.727Z,26.30
2018-06-05T18:22:03.190Z,26.10
2018-06-05T18:24:37.408Z,25.90
2018-06-05T18:27:11.693Z,25.80
2018-06-05T18:29:45.994Z,25.60
2018-06-05T18:32:20.615Z,25.50
2018-06-05T18:34:54.999Z,25.40
2018-06-05T18:37:29.260Z,25.40
2018-06-05T18:40:03.602Z,25.10
2018-06-05T18:42:37.914Z,25.10
2018-06-05T18:45:12.131Z,25.10
2018-06-05T18:47:46.565Z,25.00
2018-06-05T18:50:21.206Z,24.80
2018-06-05T18:52:55.803Z,24.80
2018-06-05T18:55:30.028Z,24.80
2018-06-05T18:58:04.455Z,24.50
2018-06-05T19:00:38.795Z,24.40
2018-06-05T19:03:13.275Z,24.30
2018-06-05T19:05:47.595Z,24.20
2018-06-05T19:08:21.910Z,24.00
2018-06-05T19:10:56.053Z,23.80
2018-06-05T19:13:30.374Z,23.80
2018-06-05T19:16:04.803Z,23.70
2018-06-05T19:18:39.158Z,23.80
2018-06-05T19:21:13.451Z,23.70
2018-06-05T19:23:47.892Z,23.50
2018-06-05T19:26:22.396Z,23.30
2018-06-05T19:28:56.584Z,23.30
2018-06-05T19:31:30.907Z,23.20
2018-06-05T19:34:05.333Z,23.10
2018-06-05T19:36:39.654Z,23.00
2018-06-05T19:39:13.955Z,23.00
2018-06-05T19:41:48.404Z,22.90
2018-06-05T19:44:22.795Z,22.80
2018-06-05T19:46:57.116Z,22.80
2018-06-05T19:49:31.607Z,22.60
2018-06-05T19:52:05.897Z,22.60
2018-06-05T19:54:40.266Z,22.60
2018-06-05T19:57:14.617Z,22.50
2018-06-05T19:59:48.868Z,22.40
2018-06-05T20:02:23.135Z,22.40
2018-06-05T20:04:57.382Z,22.40
2018-06-05T20:07:31.578Z,22.30
2018-06-05T20:10:05.933Z,22.10
2018-06-05T20:15:14.446Z,22.10
2018-06-05T20:17:48.775Z,22.00
2018-06-05T20:20:23.053Z,21.90
2018-06-05T20:22:57.338Z,21.90
2018-06-05T20:25:31.550Z,21.90
2018-06-05T20:28:05.876Z,21.70
2018-06-05T20:30:40.187Z,21.70
2018-06-05T20:33:14.499Z,21.70
2018-06-05T20:38:22.777Z,21.60
2018-06-05T20:40:56.968Z,21.50
2018-06-05T20:43:31.330Z,21.40
2018-06-05T20:46:05.749Z,21.40
2018-06-05T20:48:40.151Z,21.30
2018-06-05T20:51:14.483Z,21.20
2018-06-05T20:53:48.826Z,21.20
2018-06-05T20:56:23.072Z,21.20
2018-06-05T20:58:57.378Z,21.20
2018-06-05T21:01:31.723Z,21.00
2018-06-05T21:06:40.115Z,20.90
2018-06-05T21:09:14.418Z,20.90
2018-06-05T21:11:48.784Z,20.80
2018-06-05T21:14:23.043Z,20.80
2018-06-05T21:16:57.340Z,20.80
2018-06-05T21:19:31.669Z,20.80
2018-06-05T21:22:06.069Z,20.70
2018-06-05T21:24:40.418Z,20.80
2018-06-05T21:27:14.641Z,20.70
2018-06-05T21:29:49.003Z,20.70
2018-06-05T21:32:23.419Z,20.50
2018-06-05T21:34:57.771Z,20.60
2018-06-05T21:37:32.018Z,20.60
2018-06-05T21:40:07.057Z,20.50
2018-06-05T21:42:42.638Z,20.60
2018-06-05T21:45:16.889Z,20.50
2018-06-05T21:47:51.314Z,20.50
2018-06-05T21:50:25.574Z,20.40
2018-06-05T21:52:59.855Z,20.40
2018-06-05T21:55:34.231Z,20.30
2018-06-05T21:58:08.451Z,20.30
2018-06-05T22:00:42.812Z,20.20
2018-06-05T22:03:17.127Z,20.10
2018-06-05T22:05:51.486Z,20.20
2018-06-05T22:08:25.754Z,20.00
2018-06-05T22:10:59.999Z,20.00
2018-06-05T22:13:34.150Z,20.00
2018-06-05T22:16:08.665Z,20.00
2018-06-05T22:18:42.837Z,19.90
2018-06-05T22:21:17.266Z,19.70
2018-06-05T22:23:51.562Z,19.80
2018-06-05T22:26:25.795Z,19.80
2018-06-05T22:29:00.104Z,19.80
2018-06-05T22:31:34.415Z,19.80
2018-06-05T22:34:08.600Z,19.70
2018-06-05T22:36:42.767Z,19.60
2018-06-05T22:39:17.217Z,19.60
2018-06-05T22:41:51.528Z,19.60
2018-06-05T22:44:25.737Z,19.40
2018-06-05T22:47:06.780Z,19.20
2018-06-05T22:49:41.250Z,19.30
2018-06-05T22:52:15.605Z,19.30
2018-06-05T22:54:49.925Z,19.20
2018-06-05T22:57:24.468Z,19.30
2018-06-05T22:59:59.162Z,19.20
2018-06-05T23:02:33.319Z,19.10
2018-06-05T23:05:07.868Z,19.20
2018-06-05T23:07:42.036Z,19.10
2018-06-05T23:10:16.439Z,19.10
2018-06-05T23:12:50.806Z,19.10
2018-06-05T23:15:25.355Z,18.70
2018-06-05T23:17:59.538Z,18.70
2018-06-05T23:20:33.863Z,18.90
2018-06-05T23:23:08.142Z,18.80
2018-06-05T23:25:42.510Z,18.90
2018-06-05T23:28:16.892Z,18.80
2018-06-05T23:30:51.274Z,18.80
2018-06-05T23:33:25.523Z,18.70
2018-06-05T23:35:59.795Z,18.60
2018-06-05T23:38:34.093Z,18.60
2018-06-05T23:41:08.529Z,18.60
2018-06-05T23:43:42.899Z,18.60
2018-06-05T23:46:18.458Z,18.60
2018-06-05T23:51:27.011Z,18.50
2018-06-05T23:54:01.241Z,18.60
2018-06-05T23:56:35.387Z,18.50
2018-06-05T23:59:10.143Z,18.50
